createdAt,value
2018-10-05T00:01:38.351Z,9.50
2018-10-05T00:04:06.019Z,9.50
2018-10-05T00:06:33.619Z,9.50
2018-10-05T00:09:08.349Z,9.50
2018-10-05T00:11:36.086Z,9.50
2018-10-05T00:14:03.806Z,9.50
2018-10-05T00:16:31.414Z,9.60
2018-10-05T00:18:59.068Z,9.60
2018-10-05T00:21:26.668Z,9.60
2018-10-05T00:23:54.264Z,9.50
2018-10-05T00:26:21.856Z,9.50
2018-10-05T00:28:49.465Z,9.50
2018-10-05T00:31:17.081Z,9.50
2018-10-05T00:33:44.721Z,9.50
2018-10-05T00:36:12.338Z,9.50
2018-10-05T00:38:39.929Z,9.50
2018-10-05T00:41:07.529Z,9.40
2018-10-05T00:43:35.149Z,9.40
2018-10-05T00:46:02.798Z,9.40
2018-10-05T00:48:30.402Z,9.40
2018-10-05T00:50:58.009Z,9.40
2018-10-05T00:53:25.649Z,9.40
2018-10-05T00:55:53.212Z,9.40
2018-10-05T00:58:20.861Z,9.40
2018-10-05T01:00:48.453Z,9.50
2018-10-05T01:05:50.276Z,9.50
2018-10-05T01:08:17.882Z,9.60
2018-10-05T01:10:45.477Z,9.60
2018-10-05T01:13:13.105Z,9.60
2018-10-05T01:15:44.896Z,9.60
2018-10-05T01:18:12.549Z,9.70
2018-10-05T01:20:40.183Z,9.70
2018-10-05T01:23:07.822Z,9.70
2018-10-05T01:25:35.437Z,9.70
2018-10-05T01:28:03.065Z,9.70
2018-10-05T01:30:30.765Z,9.70
2018-10-05T01:32:58.421Z,9.80
2018-10-05T01:35:26.004Z,9.80
2018-10-05T01:37:53.585Z,9.80
2018-10-05T01:40:21.213Z,9.80
2018-10-05T01:42:48.832Z,9.80
2018-10-05T01:45:16.380Z,9.80
2018-10-05T01:47:43.955Z,9.70
2018-10-05T01:50:11.604Z,9.70
2018-10-05T01:52:39.191Z,9.70
2018-10-05T01:55:06.817Z,9.70
2018-10-05T01:57:34.425Z,9.70
2018-10-05T02:00:02.022Z,9.70
2018-10-05T02:02:29.617Z,9.70
2018-10-05T02:04:57.205Z,9.70
2018-10-05T02:07:24.810Z,9.70
2018-10-05T02:09:52.391Z,9.70
2018-10-05T02:12:19.963Z,9.70
2018-10-05T02:14:47.660Z,9.60
2018-10-05T02:17:15.244Z,9.60
2018-10-05T02:19:42.832Z,9.70
2018-10-05T02:22:10.421Z,9.70
2018-10-05T02:24:38.000Z,9.60
2018-10-05T02:27:05.638Z,9.70
2018-10-05T02:29:33.243Z,9.70
2018-10-05T02:32:00.939Z,9.60
2018-10-05T02:34:28.577Z,9.60
2018-10-05T02:36:56.165Z,9.50
2018-10-05T02:39:23.768Z,9.50
2018-10-05T02:41:51.491Z,9.50
2018-10-05T02:44:19.018Z,9.40
2018-10-05T02:46:46.589Z,9.40
2018-10-05T02:49:14.170Z,9.40
2018-10-05T02:51:41.811Z,9.30
2018-10-05T02:54:09.387Z,9.30
2018-10-05T02:56:36.991Z,9.30
2018-10-05T02:59:04.617Z,9.30
2018-10-05T03:01:43.724Z,9.30
2018-10-05T03:04:11.293Z,9.30
2018-10-05T03:06:38.938Z,9.30
2018-10-05T03:09:06.627Z,9.30
2018-10-05T03:11:34.267Z,9.30
2018-10-05T03:14:05.809Z,9.20
2018-10-05T03:16:33.361Z,9.20
2018-10-05T03:19:00.988Z,9.20
2018-10-05T03:21:28.613Z,9.20
2018-10-05T03:23:56.242Z,9.20
2018-10-05T03:26:23.909Z,9.10
2018-10-05T03:28:51.525Z,9.10
2018-10-05T03:31:19.362Z,9.00
2018-10-05T03:33:47.235Z,9.00
2018-10-05T03:36:14.992Z,8.90
2018-10-05T03:38:42.882Z,8.80
2018-10-05T03:41:10.732Z,8.80
2018-10-05T03:43:38.655Z,8.80
2018-10-05T03:46:06.709Z,8.90
2018-10-05T03:48:34.497Z,8.90
2018-10-05T03:51:02.409Z,9.00
2018-10-05T03:53:30.249Z,8.90
2018-10-05T03:55:58.264Z,8.90
2018-10-05T03:58:26.030Z,8.80
2018-10-05T04:00:53.958Z,8.90
2018-10-05T04:03:21.810Z,8.90
2018-10-05T04:05:49.562Z,8.90
2018-10-05T04:08:17.468Z,8.90
2018-10-05T04:10:45.239Z,9.00
2018-10-05T04:13:13.103Z,9.00
2018-10-05T04:15:41.294Z,9.00
2018-10-05T04:18:09.102Z,9.00
2018-10-05T04:20:36.995Z,9.00
2018-10-05T04:23:04.793Z,9.00
2018-10-05T04:25:32.609Z,8.90
2018-10-05T04:28:00.461Z,8.90
2018-10-05T04:30:28.350Z,8.90
2018-10-05T04:32:56.198Z,8.90
2018-10-05T04:35:24.051Z,8.90
2018-10-05T04:37:52.264Z,8.90
2018-10-05T04:40:20.055Z,8.80
2018-10-05T04:42:47.865Z,8.80
2018-10-05T04:45:15.816Z,8.70
2018-10-05T04:47:43.515Z,8.60
2018-10-05T04:50:11.559Z,8.50
2018-10-05T04:52:39.961Z,8.40
2018-10-05T04:55:07.851Z,8.30
2018-10-05T04:57:40.819Z,8.30
2018-10-05T05:00:08.637Z,8.20
2018-10-05T05:02:36.562Z,8.10
2018-10-05T05:05:04.414Z,8.00
2018-10-05T05:07:32.333Z,7.90
2018-10-05T05:10:04.866Z,7.90
2018-10-05T05:12:38.898Z,7.90
2018-10-05T05:15:07.281Z,7.90
2018-10-05T05:17:35.117Z,7.90
2018-10-05T05:20:03.126Z,7.90
2018-10-05T05:22:31.931Z,7.90
2018-10-05T05:24:59.756Z,7.90
2018-10-05T05:27:27.774Z,7.90
2018-10-05T05:29:55.964Z,7.90
2018-10-05T05:32:23.986Z,7.90
2018-10-05T05:34:51.879Z,7.90
2018-10-05T05:37:19.769Z,8.00
2018-10-05T05:39:47.603Z,8.00
2018-10-05T05:42:15.451Z,7.90
2018-10-05T05:44:43.410Z,8.00
2018-10-05T05:47:11.318Z,7.90
2018-10-05T05:49:44.930Z,7.90
2018-10-05T05:52:12.742Z,7.90
2018-10-05T05:54:40.588Z,7.90
2018-10-05T05:57:08.728Z,7.90
2018-10-05T05:59:36.628Z,7.90
2018-10-05T06:02:04.494Z,7.90
2018-10-05T06:04:51.318Z,7.90
2018-10-05T06:07:36.653Z,8.00
2018-10-05T06:10:04.635Z,8.00
2018-10-05T06:12:32.426Z,8.00
2018-10-05T06:15:00.182Z,8.10
2018-10-05T06:17:28.114Z,8.20
2018-10-05T06:19:55.897Z,8.20
2018-10-05T06:22:23.868Z,8.20
2018-10-05T06:24:51.644Z,8.30
2018-10-05T06:27:19.669Z,8.40
2018-10-05T06:29:48.863Z,8.40
2018-10-05T06:32:16.677Z,8.50
2018-10-05T06:34:44.622Z,8.50
2018-10-05T06:37:12.454Z,8.60
2018-10-05T06:39:40.276Z,8.60
2018-10-05T06:42:08.194Z,8.60
2018-10-05T06:44:35.954Z,8.70
2018-10-05T06:47:03.917Z,8.70
2018-10-05T06:49:31.698Z,8.80
2018-10-05T06:51:59.548Z,8.90
2018-10-05T06:54:27.351Z,9.00
2018-10-05T06:56:55.169Z,9.10
2018-10-05T06:59:23.172Z,9.20
2018-10-05T07:01:51.033Z,9.30
2018-10-05T07:04:18.955Z,9.50
2018-10-05T07:06:46.765Z,9.60
2018-10-05T07:09:14.709Z,9.70
2018-10-05T07:11:42.573Z,9.80
2018-10-05T07:14:10.475Z,10.00
2018-10-05T07:16:38.427Z,10.10
2018-10-05T07:19:06.382Z,10.30
2018-10-05T07:21:34.179Z,10.50
2018-10-05T07:24:02.301Z,10.60
2018-10-05T07:26:30.070Z,10.70
2018-10-05T07:28:57.916Z,10.80
2018-10-05T07:31:25.826Z,11.00
2018-10-05T07:33:53.861Z,11.10
2018-10-05T07:36:21.757Z,11.20
2018-10-05T07:38:49.599Z,11.50
2018-10-05T07:41:17.506Z,12.80
2018-10-05T07:43:45.434Z,15.00
2018-10-05T07:46:13.364Z,18.70
2018-10-05T07:48:41.269Z,19.00
2018-10-05T07:51:09.311Z,20.80
2018-10-05T07:53:36.898Z,22.20
2018-10-05T07:56:04.549Z,23.30
2018-10-05T07:58:32.234Z,24.40
2018-10-05T08:00:59.882Z,25.10
2018-10-05T08:03:27.546Z,25.70
2018-10-05T08:05:55.098Z,25.90
2018-10-05T08:08:22.821Z,26.20
2018-10-05T08:10:50.457Z,26.10
2018-10-05T08:13:18.054Z,26.40
2018-10-05T08:15:45.719Z,26.30
2018-10-05T08:18:13.744Z,26.40
2018-10-05T08:20:42.555Z,26.00
2018-10-05T08:23:11.528Z,26.00
2018-10-05T08:25:39.126Z,26.20
2018-10-05T08:28:06.837Z,26.70
2018-10-05T08:30:34.433Z,26.70
2018-10-05T08:33:02.339Z,27.10
2018-10-05T08:35:30.491Z,27.60
2018-10-05T08:37:58.081Z,27.80
2018-10-05T08:40:25.693Z,27.70
2018-10-05T08:42:53.312Z,27.90
2018-10-05T08:45:20.961Z,28.00
2018-10-05T08:47:48.590Z,28.10
2018-10-05T08:50:16.177Z,28.00
2018-10-05T08:52:43.805Z,28.20
2018-10-05T08:55:11.418Z,28.40
2018-10-05T08:57:39.034Z,28.30
2018-10-05T09:00:06.802Z,28.80
2018-10-05T09:02:34.459Z,29.10
2018-10-05T09:05:02.083Z,29.20
2018-10-05T09:07:29.747Z,29.30
2018-10-05T09:12:51.190Z,29.80
2018-10-05T09:15:20.494Z,29.60
2018-10-05T09:18:07.411Z,29.80
2018-10-05T09:20:34.971Z,29.80
2018-10-05T09:23:02.613Z,29.70
2018-10-05T09:25:30.277Z,30.00
2018-10-05T09:28:03.497Z,30.40
2018-10-05T09:30:31.281Z,30.40
2018-10-05T09:32:58.830Z,29.90
2018-10-05T09:35:26.474Z,30.00
2018-10-05T09:37:54.129Z,30.20
2018-10-05T09:40:21.793Z,30.40
2018-10-05T09:42:49.442Z,30.40
2018-10-05T09:45:17.163Z,30.40
2018-10-05T09:47:51.387Z,30.40
2018-10-05T09:50:19.088Z,30.50
2018-10-05T09:52:53.841Z,30.60
2018-10-05T09:55:26.013Z,30.80
2018-10-05T09:57:53.649Z,31.00
2018-10-05T10:00:32.482Z,31.10
2018-10-05T10:03:03.538Z,30.80
2018-10-05T10:05:31.285Z,31.00
2018-10-05T10:08:00.075Z,31.00
2018-10-05T10:10:28.574Z,31.10
2018-10-05T10:15:44.648Z,30.90
2018-10-05T10:18:19.575Z,30.50
2018-10-05T10:20:52.274Z,31.00
2018-10-05T10:23:39.643Z,31.10
2018-10-05T10:26:07.336Z,31.30
2018-10-05T10:28:35.964Z,31.10
2018-10-05T10:31:04.567Z,30.80
2018-10-05T10:35:03.760Z,30.00
2018-10-05T10:37:32.966Z,29.00
2018-10-05T10:40:01.832Z,26.70
2018-10-05T10:45:52.535Z,23.90
2018-10-05T10:48:33.971Z,22.90
2018-10-05T10:51:06.994Z,22.20
2018-10-05T10:53:39.353Z,21.80
2018-10-05T10:56:24.147Z,21.60
2018-10-05T10:58:57.657Z,21.30
2018-10-05T11:01:32.342Z,21.00
2018-10-05T11:04:09.835Z,20.90
2018-10-05T11:06:44.976Z,20.80
2018-10-05T11:09:17.270Z,20.80
2018-10-05T11:11:45.805Z,20.80
2018-10-05T11:14:28.846Z,20.70
2018-10-05T11:17:06.894Z,20.70
2018-10-05T11:19:41.002Z,20.80
2018-10-05T11:22:27.590Z,20.80
2018-10-05T11:25:07.328Z,20.80
2018-10-05T11:27:48.664Z,20.80
2018-10-05T11:30:30.747Z,20.80
2018-10-05T11:33:02.571Z,20.70
2018-10-05T11:35:39.877Z,20.90
2018-10-05T11:38:12.035Z,20.90
2018-10-05T11:40:44.472Z,20.80
2018-10-05T11:45:51.759Z,20.90
2018-10-05T11:48:24.785Z,20.90
2018-10-05T11:51:07.189Z,20.90
2018-10-05T11:53:41.834Z,20.90
2018-10-05T11:56:09.474Z,20.90
2018-10-05T11:58:37.230Z,20.90
2018-10-05T12:01:04.993Z,20.90
2018-10-05T12:03:32.616Z,20.90
2018-10-05T12:06:03.257Z,21.00
2018-10-05T12:08:30.846Z,20.90
2018-10-05T12:10:58.470Z,21.00
2018-10-05T12:16:00.984Z,21.00
2018-10-05T12:18:30.683Z,21.00
2018-10-05T12:20:58.290Z,21.10
2018-10-05T12:23:25.946Z,21.20
2018-10-05T12:25:53.863Z,21.30
2018-10-05T12:28:24.008Z,21.30
2018-10-05T12:30:55.082Z,21.30
2018-10-05T12:33:23.153Z,21.30
2018-10-05T12:35:51.151Z,21.40
2018-10-05T12:38:19.206Z,21.50
2018-10-05T12:40:48.281Z,21.50
2018-10-05T12:43:16.042Z,21.50
2018-10-05T12:45:43.959Z,21.60
2018-10-05T12:48:11.796Z,21.60
2018-10-05T12:50:39.681Z,21.70
2018-10-05T12:53:07.549Z,21.80
2018-10-05T12:55:35.371Z,21.80
2018-10-05T12:58:03.916Z,21.80
2018-10-05T13:00:31.850Z,21.80
2018-10-05T13:02:59.898Z,21.80
2018-10-05T13:05:27.826Z,21.80
2018-10-05T13:07:55.875Z,21.80
2018-10-05T13:10:23.733Z,21.80
2018-10-05T13:12:51.698Z,21.90
2018-10-05T13:15:19.693Z,22.00
2018-10-05T13:17:47.675Z,22.00
2018-10-05T13:20:17.527Z,21.90
2018-10-05T13:22:45.517Z,22.00
2018-10-05T13:25:14.552Z,22.00
2018-10-05T13:27:42.426Z,21.90
2018-10-05T13:30:10.351Z,22.00
2018-10-05T13:32:38.294Z,22.10
2018-10-05T13:35:06.258Z,22.10
2018-10-05T13:37:34.141Z,22.00
2018-10-05T13:40:02.013Z,22.00
2018-10-05T13:42:30.075Z,22.00
2018-10-05T13:44:57.872Z,22.00
2018-10-05T13:47:26.950Z,22.00
2018-10-05T13:49:54.891Z,22.10
2018-10-05T13:52:22.771Z,22.10
2018-10-05T13:54:51.015Z,22.10
2018-10-05T13:57:18.859Z,22.10
2018-10-05T13:59:46.664Z,22.00
2018-10-05T14:02:14.591Z,22.00
2018-10-05T14:04:42.442Z,22.00
2018-10-05T14:07:10.417Z,22.00
2018-10-05T14:09:39.439Z,22.10
2018-10-05T14:12:07.368Z,22.00
2018-10-05T14:14:35.189Z,22.00
2018-10-05T14:17:03.148Z,22.10
2018-10-05T14:19:31.019Z,22.00
2018-10-05T14:21:58.770Z,22.00
2018-10-05T14:24:42.510Z,22.10
2018-10-05T14:27:10.432Z,22.00
2018-10-05T14:29:38.074Z,22.00
2018-10-05T14:32:06.029Z,22.00
2018-10-05T14:34:33.654Z,22.00
2018-10-05T14:37:01.250Z,22.00
2018-10-05T14:39:28.879Z,22.00
2018-10-05T14:41:56.571Z,21.90
2018-10-05T14:44:24.154Z,21.90
2018-10-05T14:46:51.765Z,21.90
2018-10-05T14:49:19.535Z,21.90
2018-10-05T14:51:47.198Z,21.80
2018-10-05T14:54:14.931Z,21.80
2018-10-05T14:56:46.445Z,21.80
2018-10-05T14:59:14.120Z,21.80
2018-10-05T15:01:42.692Z,21.80
2018-10-05T15:04:10.349Z,21.80
2018-10-05T15:06:45.042Z,21.80
2018-10-05T15:09:12.635Z,21.70
2018-10-05T15:11:40.426Z,21.70
2018-10-05T15:14:24.460Z,21.70
2018-10-05T15:16:52.382Z,21.60
2018-10-05T15:19:20.515Z,21.60
2018-10-05T15:21:48.321Z,21.50
2018-10-05T15:24:16.150Z,21.40
2018-10-05T15:26:43.866Z,21.40
2018-10-05T15:29:11.455Z,21.40
2018-10-05T15:31:39.135Z,21.30
2018-10-05T15:34:06.793Z,21.30
2018-10-05T15:36:34.478Z,21.20
2018-10-05T15:39:02.170Z,21.30
2018-10-05T15:41:31.728Z,21.20
2018-10-05T15:44:00.727Z,21.20
2018-10-05T15:46:53.013Z,21.10
2018-10-05T15:49:20.990Z,21.10
2018-10-05T15:51:49.009Z,21.10
2018-10-05T15:54:16.766Z,21.00
2018-10-05T15:56:46.344Z,21.00
2018-10-05T15:59:14.094Z,20.90
2018-10-05T16:01:41.870Z,20.80
2018-10-05T16:04:09.522Z,20.80
2018-10-05T16:06:37.568Z,20.70
2018-10-05T16:09:07.549Z,20.60
2018-10-05T16:11:36.654Z,20.50
2018-10-05T16:14:04.753Z,20.50
2018-10-05T16:16:32.478Z,20.40
2018-10-05T16:19:00.250Z,20.30
2018-10-05T16:24:05.113Z,20.10
2018-10-05T16:26:32.876Z,19.90
2018-10-05T16:29:04.515Z,19.80
2018-10-05T16:31:32.183Z,19.70
2018-10-05T16:34:00.157Z,19.60
2018-10-05T16:36:27.802Z,19.40
2018-10-05T16:38:55.648Z,19.30
2018-10-05T16:41:23.293Z,19.20
2018-10-05T16:43:51.178Z,19.00
2018-10-05T16:46:18.934Z,19.00
2018-10-05T16:48:46.775Z,18.90
2018-10-05T16:51:14.449Z,18.90
2018-10-05T16:53:42.052Z,18.80
2018-10-05T16:56:10.413Z,18.70
2018-10-05T16:58:39.129Z,18.60
2018-10-05T17:01:13.973Z,18.50
2018-10-05T17:03:41.654Z,18.40
2018-10-05T17:06:09.584Z,18.20
2018-10-05T17:08:40.429Z,17.90
2018-10-05T17:11:08.372Z,17.70
2018-10-05T17:13:36.296Z,17.60
2018-10-05T17:16:04.246Z,17.50
2018-10-05T17:18:32.174Z,17.50
2018-10-05T17:21:01.860Z,17.40
2018-10-05T17:23:30.020Z,17.40
2018-10-05T17:25:58.172Z,17.30
2018-10-05T17:28:26.023Z,17.20
2018-10-05T17:30:53.914Z,17.00
2018-10-05T17:33:27.177Z,16.90
2018-10-05T17:35:55.247Z,16.70
2018-10-05T17:38:23.298Z,16.70
2018-10-05T17:40:51.291Z,16.60
2018-10-05T17:43:22.950Z,16.50
2018-10-05T17:45:52.931Z,16.60
2018-10-05T17:48:21.008Z,16.70
2018-10-05T17:50:49.011Z,16.80
2018-10-05T17:53:16.977Z,16.80
2018-10-05T17:55:45.022Z,16.80
2018-10-05T17:58:12.889Z,16.70
2018-10-05T18:00:40.917Z,16.50
2018-10-05T18:03:08.881Z,16.30
2018-10-05T18:05:36.840Z,16.20
2018-10-05T18:08:04.967Z,16.10
2018-10-05T18:10:32.874Z,16.00
2018-10-05T18:13:00.763Z,15.80
2018-10-05T18:15:28.714Z,15.80
2018-10-05T18:17:56.808Z,15.80
2018-10-05T18:20:24.902Z,15.70
2018-10-05T18:22:52.819Z,15.60
2018-10-05T18:25:20.855Z,15.60
2018-10-05T18:27:48.885Z,15.50
2018-10-05T18:30:16.960Z,15.50
2018-10-05T18:32:44.898Z,15.40
2018-10-05T18:35:12.874Z,15.40
2018-10-05T18:37:47.441Z,15.40
2018-10-05T18:40:15.803Z,15.40
2018-10-05T18:42:43.802Z,15.30
2018-10-05T18:45:11.687Z,15.30
2018-10-05T18:47:39.572Z,15.30
2018-10-05T18:50:07.872Z,15.40
2018-10-05T18:52:36.286Z,15.40
2018-10-05T18:55:04.443Z,15.40
2018-10-05T18:57:34.472Z,15.40
2018-10-05T19:00:03.076Z,15.40
2018-10-05T19:02:31.780Z,15.40
2018-10-05T19:05:00.086Z,15.40
2018-10-05T19:07:28.154Z,15.40
2018-10-05T19:09:56.128Z,15.40
2018-10-05T19:12:24.300Z,15.40
2018-10-05T19:14:57.479Z,15.40
2018-10-05T19:17:25.648Z,15.30
2018-10-05T19:19:54.663Z,15.20
2018-10-05T19:22:22.568Z,15.10
2018-10-05T19:24:52.464Z,15.00
2018-10-05T19:27:20.527Z,15.00
2018-10-05T19:29:48.510Z,14.90
2018-10-05T19:32:16.412Z,14.80
2018-10-05T19:34:44.512Z,14.70
2018-10-05T19:37:12.474Z,14.70
2018-10-05T19:39:40.439Z,14.60
2018-10-05T19:42:09.596Z,14.70
2018-10-05T19:44:37.474Z,14.70
2018-10-05T19:47:05.428Z,14.70
2018-10-05T19:49:33.142Z,14.80
2018-10-05T19:52:00.801Z,14.80
2018-10-05T19:54:30.257Z,14.70
2018-10-05T19:56:57.924Z,14.80
2018-10-05T19:59:25.614Z,14.80
2018-10-05T20:01:53.392Z,14.80
2018-10-05T20:04:21.104Z,14.80
2018-10-05T20:06:52.796Z,14.90
2018-10-05T20:09:21.725Z,14.90
2018-10-05T20:11:49.369Z,14.90
2018-10-05T20:14:17.074Z,15.00
2018-10-05T20:16:44.720Z,15.00
2018-10-05T20:19:13.423Z,15.00
2018-10-05T20:21:44.304Z,15.00
2018-10-05T20:24:11.982Z,14.90
2018-10-05T20:26:39.651Z,14.90
2018-10-05T20:29:11.622Z,14.80
2018-10-05T20:31:39.644Z,14.70
2018-10-05T20:34:08.592Z,14.60
2018-10-05T20:36:36.431Z,14.60
2018-10-05T20:39:06.056Z,14.60
2018-10-05T20:41:33.764Z,14.50
2018-10-05T20:44:02.187Z,14.40
2018-10-05T20:46:30.704Z,14.50
2018-10-05T20:49:08.707Z,14.50
2018-10-05T20:51:36.843Z,14.50
2018-10-05T20:54:04.827Z,14.50
2018-10-05T20:56:34.318Z,14.50
2018-10-05T20:59:06.206Z,14.60
2018-10-05T21:01:35.379Z,14.50
2018-10-05T21:04:03.423Z,14.40
2018-10-05T21:06:31.605Z,14.40
2018-10-05T21:09:00.418Z,14.30
2018-10-05T21:11:28.459Z,14.30
2018-10-05T21:13:56.810Z,14.30
2018-10-05T21:16:24.969Z,14.20
2018-10-05T21:18:52.895Z,14.10
2018-10-05T21:21:20.754Z,14.10
2018-10-05T21:23:48.683Z,14.00
2018-10-05T21:26:16.693Z,14.10
2018-10-05T21:28:44.559Z,14.00
2018-10-05T21:31:13.763Z,14.00
2018-10-05T21:33:41.822Z,14.00
2018-10-05T21:36:09.769Z,13.90
2018-10-05T21:38:37.620Z,13.90
2018-10-05T21:41:05.701Z,13.90
2018-10-05T21:43:33.577Z,13.90
2018-10-05T21:46:01.579Z,13.90
2018-10-05T21:48:29.666Z,13.90
2018-10-05T21:50:57.568Z,13.80
2018-10-05T21:53:25.493Z,13.70
2018-10-05T21:55:53.352Z,13.70
2018-10-05T21:58:21.431Z,13.80
2018-10-05T22:00:49.376Z,13.70
2018-10-05T22:03:18.053Z,13.70
2018-10-05T22:05:51.104Z,13.60
2018-10-05T22:08:19.043Z,13.60
2018-10-05T22:10:46.941Z,13.60
2018-10-05T22:13:14.780Z,13.50
2018-10-05T22:15:43.729Z,13.40
2018-10-05T22:18:11.618Z,13.40
2018-10-05T22:20:39.570Z,13.40
2018-10-05T22:23:07.432Z,13.30
2018-10-05T22:25:37.923Z,13.30
2018-10-05T22:28:05.912Z,13.20
2018-10-05T22:30:33.729Z,13.10
2018-10-05T22:33:01.609Z,13.10
2018-10-05T22:35:29.561Z,13.10
2018-10-05T22:37:57.754Z,13.00
2018-10-05T22:40:25.814Z,13.00
2018-10-05T22:42:53.898Z,13.00
2018-10-05T22:45:21.810Z,13.00
2018-10-05T22:47:49.917Z,13.00
2018-10-05T22:50:17.855Z,12.90
2018-10-05T22:52:45.798Z,12.80
2018-10-05T22:55:13.694Z,12.80
2018-10-05T22:57:41.576Z,12.80
2018-10-05T23:00:09.498Z,12.80
2018-10-05T23:02:37.418Z,12.70
2018-10-05T23:05:05.328Z,12.70
2018-10-05T23:07:33.249Z,12.70
2018-10-05T23:10:01.141Z,12.70
2018-10-05T23:12:28.997Z,12.70
2018-10-05T23:14:56.920Z,12.60
2018-10-05T23:17:37.067Z,12.70
2018-10-05T23:20:15.788Z,12.70
2018-10-05T23:22:43.670Z,12.70
2018-10-05T23:25:11.510Z,12.70
2018-10-05T23:27:39.416Z,12.80
2018-10-05T23:30:07.294Z,12.70
2018-10-05T23:32:35.207Z,12.60
2018-10-05T23:35:03.171Z,12.60
2018-10-05T23:37:31.311Z,12.50
2018-10-05T23:39:59.246Z,12.50
2018-10-05T23:42:27.068Z,12.40
2018-10-05T23:44:59.745Z,12.40
2018-10-05T23:47:27.615Z,12.40
2018-10-05T23:49:55.449Z,12.40
2018-10-05T23:52:45.040Z,12.40
2018-10-05T23:55:12.918Z,12.40
2018-10-05T23:57:41.243Z,12.40
